sensor_id;sensor_type;location;lat;lon;timestamp;temperature;humidity
28484;DHT22;15704;48.834;8.736;2023-03-01T00:01:36;-2.10;99.90
28484;DHT22;15704;48.834;8.736;2023-03-01T00:04:03;-2.10;99.90
28484;DHT22;15704;48.834;8.736;2023-03-01T00:06:35;-2.10;99.90
28484;DHT22;15704;48.834;8.736;2023-03-01T00:09:08;-2.10;99.90
28484;DHT22;15704;48.834;8.736;2023-03-01T00:11:35;-2.10;99.90
28484;DHT22;15704;48.834;8.736;2023-03-01T00:14:02;-2.10;99.90
28484;DHT22;15704;48.834;8.736;2023-03-01T00:16:35;-2.10;99.90
28484;DHT22;15704;48.834;8.736;2023-03-01T00:19:02;-2.20;99.90
28484;DHT22;15704;48.834;8.736;2023-03-01T00:21:29;-2.10;99.90
28484;DHT22;15704;48.834;8.736;2023-03-01T00:23:55;-2.10;99.90
28484;DHT22;15704;48.834;8.736;2023-03-01T00:26:24;-2.20;99.90
28484;DHT22;15704;48.834;8.736;2023-03-01T00:28:51;-2.20;99.90
28484;DHT22;15704;48.834;8.736;2023-03-01T00:31:21;-2.20;99.90
28484;DHT22;15704;48.834;8.736;2023-03-01T00:33:48;-2.20;99.90
28484;DHT22;15704;48.834;8.736;2023-03-01T00:36:15;-2.30;99.90
28484;DHT22;15704;48.834;8.736;2023-03-01T00:38:43;-2.30;99.90
28484;DHT22;15704;48.834;8.736;2023-03-01T00:41:13;-2.30;99.90
28484;DHT22;15704;48.834;8.736;2023-03-01T00:43:40;-2.30;99.90
28484;DHT22;15704;48.834;8.736;2023-03-01T00:46:13;-2.30;99.90
28484;DHT22;15704;48.834;8.736;2023-03-01T00:48:40;-2.30;99.90
28484;DHT22;15704;48.834;8.736;2023-03-01T00:51:10;-2.30;99.90
28484;DHT22;15704;48.834;8.736;2023-03-01T00:53:37;-2.30;99.90
28484;DHT22;15704;48.834;8.736;2023-03-01T00:56:05;-2.40;99.90
28484;DHT22;15704;48.834;8.736;2023-03-01T00:58:33;-2.30;99.90
28484;DHT22;15704;48.834;8.736;2023-03-01T01:01:00;-2.30;99.90
28484;DHT22;15704;48.834;8.736;2023-03-01T01:03:27;-2.40;99.90
28484;DHT22;15704;48.834;8.736;2023-03-01T01:05:54;-2.40;99.90
28484;DHT22;15704;48.834;8.736;2023-03-01T01:08:21;-2.40;99.90
28484;DHT22;15704;48.834;8.736;2023-03-01T01:10:47;-2.30;99.90
28484;DHT22;15704;48.834;8.736;2023-03-01T01:13:14;-2.30;99.90
28484;DHT22;15704;48.834;8.736;2023-03-01T01:15:41;-2.30;99.90
28484;DHT22;15704;48.834;8.736;2023-03-01T01:18:08;-2.30;99.90
28484;DHT22;15704;48.834;8.736;2023-03-01T01:20:35;-2.40;99.90
28484;DHT22;15704;48.834;8.736;2023-03-01T01:23:05;-2.40;99.90
28484;DHT22;15704;48.834;8.736;2023-03-01T01:28:23;-2.50;99.90
28484;DHT22;15704;48.834;8.736;2023-03-01T01:31:00;-2.50;99.90
28484;DHT22;15704;48.834;8.736;2023-03-01T01:33:27;-2.50;99.90
28484;DHT22;15704;48.834;8.736;2023-03-01T01:35:54;-2.50;99.90
28484;DHT22;15704;48.834;8.736;2023-03-01T01:38:23;-2.60;99.90
28484;DHT22;15704;48.834;8.736;2023-03-01T01:40:50;-2.60;99.90
28484;DHT22;15704;48.834;8.736;2023-03-01T01:43:19;-2.60;99.90
28484;DHT22;15704;48.834;8.736;2023-03-01T01:45:46;-2.60;99.90
28484;DHT22;15704;48.834;8.736;2023-03-01T01:48:18;-2.60;99.90
28484;DHT22;15704;48.834;8.736;2023-03-01T01:50:58;-2.60;99.90
28484;DHT22;15704;48.834;8.736;2023-03-01T01:53:31;-2.60;99.90
28484;DHT22;15704;48.834;8.736;2023-03-01T01:56:29;-2.70;99.90
28484;DHT22;15704;48.834;8.736;2023-03-01T01:58:56;-2.60;99.90
28484;DHT22;15704;48.834;8.736;2023-03-01T02:01:24;-2.70;99.90
28484;DHT22;15704;48.834;8.736;2023-03-01T02:03:51;-2.70;99.90
28484;DHT22;15704;48.834;8.736;2023-03-01T02:06:26;-2.70;99.90
28484;DHT22;15704;48.834;8.736;2023-03-01T02:09:00;-2.70;99.90
28484;DHT22;15704;48.834;8.736;2023-03-01T02:11:30;-2.70;99.90
28484;DHT22;15704;48.834;8.736;2023-03-01T02:13:58;-2.70;99.90
28484;DHT22;15704;48.834;8.736;2023-03-01T02:16:25;-2.70;99.90
28484;DHT22;15704;48.834;8.736;2023-03-01T02:18:52;-2.70;99.90
28484;DHT22;15704;48.834;8.736;2023-03-01T02:21:41;-2.80;99.90
28484;DHT22;15704;48.834;8.736;2023-03-01T02:24:35;-2.70;99.90
28484;DHT22;15704;48.834;8.736;2023-03-01T02:27:06;-2.80;99.90
28484;DHT22;15704;48.834;8.736;2023-03-01T02:29:33;-2.80;99.90
28484;DHT22;15704;48.834;8.736;2023-03-01T02:32:08;-2.80;99.90
28484;DHT22;15704;48.834;8.736;2023-03-01T02:34:38;-2.80;99.90
28484;DHT22;15704;48.834;8.736;2023-03-01T02:37:13;-2.80;99.90
28484;DHT22;15704;48.834;8.736;2023-03-01T02:39:47;-2.90;99.90
28484;DHT22;15704;48.834;8.736;2023-03-01T02:42:20;-2.90;99.90
28484;DHT22;15704;48.834;8.736;2023-03-01T02:44:49;-2.90;99.90
28484;DHT22;15704;48.834;8.736;2023-03-01T02:47:16;-2.90;99.90
28484;DHT22;15704;48.834;8.736;2023-03-01T02:49:43;-2.90;99.90
28484;DHT22;15704;48.834;8.736;2023-03-01T02:55:11;-3.00;99.90
28484;DHT22;15704;48.834;8.736;2023-03-01T02:57:42;-3.00;99.90
28484;DHT22;15704;48.834;8.736;2023-03-01T03:00:22;-3.10;99.90
28484;DHT22;15704;48.834;8.736;2023-03-01T03:02:51;-3.10;99.90
28484;DHT22;15704;48.834;8.736;2023-03-01T03:05:24;-3.10;99.90
28484;DHT22;15704;48.834;8.736;2023-03-01T03:07:51;-3.20;99.90
28484;DHT22;15704;48.834;8.736;2023-03-01T03:10:27;-3.00;99.90
28484;DHT22;15704;48.834;8.736;2023-03-01T03:12:59;-3.00;99.90
28484;DHT22;15704;48.834;8.736;2023-03-01T03:15:27;-2.90;99.90
28484;DHT22;15704;48.834;8.736;2023-03-01T03:17:56;-2.90;99.90
28484;DHT22;15704;48.834;8.736;2023-03-01T03:20:26;-2.80;99.90
28484;DHT22;15704;48.834;8.736;2023-03-01T03:22:54;-2.70;99.90
28484;DHT22;15704;48.834;8.736;2023-03-01T03:25:22;-2.70;99.90
28484;DHT22;15704;48.834;8.736;2023-03-01T03:27:51;-2.50;99.90
28484;DHT22;15704;48.834;8.736;2023-03-01T03:30:26;-2.40;99.90
28484;DHT22;15704;48.834;8.736;2023-03-01T03:32:53;-2.30;99.90
28484;DHT22;15704;48.834;8.736;2023-03-01T03:35:37;-2.20;99.90
28484;DHT22;15704;48.834;8.736;2023-03-01T03:38:06;-2.10;99.90
28484;DHT22;15704;48.834;8.736;2023-03-01T03:40:38;-2.00;99.90
28484;DHT22;15704;48.834;8.736;2023-03-01T03:43:07;-1.90;99.90
28484;DHT22;15704;48.834;8.736;2023-03-01T03:45:35;-1.90;99.90
28484;DHT22;15704;48.834;8.736;2023-03-01T03:48:04;-1.80;99.90
28484;DHT22;15704;48.834;8.736;2023-03-01T03:50:32;-1.90;99.90
28484;DHT22;15704;48.834;8.736;2023-03-01T03:53:04;-1.80;99.90
28484;DHT22;15704;48.834;8.736;2023-03-01T03:55:32;-1.70;99.90
28484;DHT22;15704;48.834;8.736;2023-03-01T03:58:03;-1.70;99.90
28484;DHT22;15704;48.834;8.736;2023-03-01T04:00:41;-1.70;99.90
28484;DHT22;15704;48.834;8.736;2023-03-01T04:03:09;-1.70;99.90
28484;DHT22;15704;48.834;8.736;2023-03-01T04:05:39;-1.60;99.90
28484;DHT22;15704;48.834;8.736;2023-03-01T04:08:34;-1.60;99.90
28484;DHT22;15704;48.834;8.736;2023-03-01T04:11:04;-1.50;99.90
28484;DHT22;15704;48.834;8.736;2023-03-01T04:13:51;-1.50;99.90
28484;DHT22;15704;48.834;8.736;2023-03-01T04:16:24;-1.50;99.90
28484;DHT22;15704;48.834;8.736;2023-03-01T04:18:51;-1.50;99.90
28484;DHT22;15704;48.834;8.736;2023-03-01T04:21:20;-1.40;99.90
28484;DHT22;15704;48.834;8.736;2023-03-01T04:23:54;-1.40;99.90
28484;DHT22;15704;48.834;8.736;2023-03-01T04:26:21;-1.40;99.90
28484;DHT22;15704;48.834;8.736;2023-03-01T04:28:47;-1.30;99.90
28484;DHT22;15704;48.834;8.736;2023-03-01T04:31:24;-1.30;99.90
28484;DHT22;15704;48.834;8.736;2023-03-01T04:33:53;-1.20;99.90
28484;DHT22;15704;48.834;8.736;2023-03-01T04:36:25;-1.20;99.90
28484;DHT22;15704;48.834;8.736;2023-03-01T04:38:52;-1.20;99.90
28484;DHT22;15704;48.834;8.736;2023-03-01T04:41:21;-1.20;99.90
28484;DHT22;15704;48.834;8.736;2023-03-01T04:43:48;-1.20;99.90
28484;DHT22;15704;48.834;8.736;2023-03-01T04:46:42;-1.20;99.90
28484;DHT22;15704;48.834;8.736;2023-03-01T04:49:09;-1.10;99.90
28484;DHT22;15704;48.834;8.736;2023-03-01T04:51:36;-1.10;99.90
28484;DHT22;15704;48.834;8.736;2023-03-01T04:54:03;-1.00;99.90
28484;DHT22;15704;48.834;8.736;2023-03-01T04:56:29;-1.00;99.90
28484;DHT22;15704;48.834;8.736;2023-03-01T04:58:57;-1.10;99.90
28484;DHT22;15704;48.834;8.736;2023-03-01T05:01:24;-1.00;99.90
28484;DHT22;15704;48.834;8.736;2023-03-01T05:03:51;-1.00;99.90
28484;DHT22;15704;48.834;8.736;2023-03-01T05:06:19;-0.90;99.90
28484;DHT22;15704;48.834;8.736;2023-03-01T05:08:54;-0.90;99.90
28484;DHT22;15704;48.834;8.736;2023-03-01T05:11:24;-0.90;99.90
28484;DHT22;15704;48.834;8.736;2023-03-01T05:13:50;-0.90;99.90
28484;DHT22;15704;48.834;8.736;2023-03-01T05:16:23;-0.90;99.90
28484;DHT22;15704;48.834;8.736;2023-03-01T05:19:13;-0.80;99.90
28484;DHT22;15704;48.834;8.736;2023-03-01T05:21:53;-0.90;99.90
28484;DHT22;15704;48.834;8.736;2023-03-01T05:24:35;-0.80;99.90
28484;DHT22;15704;48.834;8.736;2023-03-01T05:27:17;-0.80;99.90
28484;DHT22;15704;48.834;8.736;2023-03-01T05:29:49;-0.80;99.90
28484;DHT22;15704;48.834;8.736;2023-03-01T05:32:16;-0.80;99.90
28484;DHT22;15704;48.834;8.736;2023-03-01T05:34:43;-0.70;99.90
28484;DHT22;15704;48.834;8.736;2023-03-01T05:37:24;-0.70;99.90
28484;DHT22;15704;48.834;8.736;2023-03-01T05:39:51;-0.70;99.90
28484;DHT22;15704;48.834;8.736;2023-03-01T05:42:18;-0.80;99.90
28484;DHT22;15704;48.834;8.736;2023-03-01T05:44:44;-0.90;99.90
28484;DHT22;15704;48.834;8.736;2023-03-01T05:47:11;-0.90;99.90
28484;DHT22;15704;48.834;8.736;2023-03-01T05:49:38;-0.90;99.90
28484;DHT22;15704;48.834;8.736;2023-03-01T05:52:16;-1.00;99.90
28484;DHT22;15704;48.834;8.736;2023-03-01T05:54:42;-0.90;99.90
28484;DHT22;15704;48.834;8.736;2023-03-01T05:57:09;-0.90;99.90
28484;DHT22;15704;48.834;8.736;2023-03-01T05:59:36;-0.90;99.90
28484;DHT22;15704;48.834;8.736;2023-03-01T06:02:03;-1.00;99.90
28484;DHT22;15704;48.834;8.736;2023-03-01T06:04:30;-1.00;99.90
28484;DHT22;15704;48.834;8.736;2023-03-01T06:06:56;-1.10;99.90
28484;DHT22;15704;48.834;8.736;2023-03-01T06:09:32;-1.10;99.90
28484;DHT22;15704;48.834;8.736;2023-03-01T06:12:14;-1.20;99.90
28484;DHT22;15704;48.834;8.736;2023-03-01T06:14:41;-1.40;99.90
28484;DHT22;15704;48.834;8.736;2023-03-01T06:17:07;-1.40;99.90
28484;DHT22;15704;48.834;8.736;2023-03-01T06:19:34;-1.40;99.90
28484;DHT22;15704;48.834;8.736;2023-03-01T06:22:01;-1.40;99.90
28484;DHT22;15704;48.834;8.736;2023-03-01T06:24:31;-1.30;99.90
28484;DHT22;15704;48.834;8.736;2023-03-01T06:27:00;-1.40;99.90
28484;DHT22;15704;48.834;8.736;2023-03-01T06:29:32;-1.40;99.90
28484;DHT22;15704;48.834;8.736;2023-03-01T06:32:08;-1.40;99.90
28484;DHT22;15704;48.834;8.736;2023-03-01T06:34:35;-1.50;99.90
28484;DHT22;15704;48.834;8.736;2023-03-01T06:37:01;-1.40;99.90
28484;DHT22;15704;48.834;8.736;2023-03-01T06:39:32;-1.30;99.90
28484;DHT22;15704;48.834;8.736;2023-03-01T06:42:01;-1.40;99.90
28484;DHT22;15704;48.834;8.736;2023-03-01T06:44:28;-1.40;99.90
28484;DHT22;15704;48.834;8.736;2023-03-01T06:46:54;-1.50;99.90
28484;DHT22;15704;48.834;8.736;2023-03-01T06:49:21;-1.50;99.90
28484;DHT22;15704;48.834;8.736;2023-03-01T06:51:53;-1.40;99.90
28484;DHT22;15704;48.834;8.736;2023-03-01T06:54:19;-1.30;99.90
28484;DHT22;15704;48.834;8.736;2023-03-01T06:56:49;-1.20;99.90
28484;DHT22;15704;48.834;8.736;2023-03-01T06:59:16;-1.10;99.90
28484;DHT22;15704;48.834;8.736;2023-03-01T07:01:46;-1.00;99.90
28484;DHT22;15704;48.834;8.736;2023-03-01T07:04:21;-0.80;99.90
28484;DHT22;15704;48.834;8.736;2023-03-01T07:06:54;-0.90;99.90
28484;DHT22;15704;48.834;8.736;2023-03-01T07:09:28;-0.80;99.90
28484;DHT22;15704;48.834;8.736;2023-03-01T07:12:01;-0.60;99.90
28484;DHT22;15704;48.834;8.736;2023-03-01T07:14:28;-0.60;99.90
28484;DHT22;15704;48.834;8.736;2023-03-01T07:16:55;-0.50;99.90
28484;DHT22;15704;48.834;8.736;2023-03-01T07:19:22;-0.50;99.90
28484;DHT22;15704;48.834;8.736;2023-03-01T07:21:49;-0.60;99.90
28484;DHT22;15704;48.834;8.736;2023-03-01T07:24:21;-0.70;99.90
28484;DHT22;15704;48.834;8.736;2023-03-01T07:26:54;-0.90;99.90
28484;DHT22;15704;48.834;8.736;2023-03-01T07:29:21;-0.90;99.90
28484;DHT22;15704;48.834;8.736;2023-03-01T07:31:50;-1.00;99.90
28484;DHT22;15704;48.834;8.736;2023-03-01T07:34:17;-1.00;99.90
28484;DHT22;15704;48.834;8.736;2023-03-01T07:36:44;-1.00;99.90
28484;DHT22;15704;48.834;8.736;2023-03-01T07:39:14;-1.10;99.90
28484;DHT22;15704;48.834;8.736;2023-03-01T07:41:46;-1.20;99.90
28484;DHT22;15704;48.834;8.736;2023-03-01T07:44:13;-1.20;99.90
28484;DHT22;15704;48.834;8.736;2023-03-01T07:46:40;-1.20;99.90
28484;DHT22;15704;48.834;8.736;2023-03-01T07:49:06;-1.30;99.90
28484;DHT22;15704;48.834;8.736;2023-03-01T07:51:45;-1.30;99.90
28484;DHT22;15704;48.834;8.736;2023-03-01T07:54:17;-1.30;99.90
28484;DHT22;15704;48.834;8.736;2023-03-01T07:56:44;-1.20;99.90
28484;DHT22;15704;48.834;8.736;2023-03-01T07:59:11;-1.10;99.90
28484;DHT22;15704;48.834;8.736;2023-03-01T08:01:40;-1.10;99.90
28484;DHT22;15704;48.834;8.736;2023-03-01T08:04:08;-0.90;99.90
28484;DHT22;15704;48.834;8.736;2023-03-01T08:06:35;-0.90;99.90
28484;DHT22;15704;48.834;8.736;2023-03-01T08:09:02;-0.80;99.90
28484;DHT22;15704;48.834;8.736;2023-03-01T08:11:29;-0.80;99.90
28484;DHT22;15704;48.834;8.736;2023-03-01T08:13:56;-0.60;99.90
28484;DHT22;15704;48.834;8.736;2023-03-01T08:16:24;-0.60;99.90
28484;DHT22;15704;48.834;8.736;2023-03-01T08:18:51;-0.60;99.90
28484;DHT22;15704;48.834;8.736;2023-03-01T08:21:18;-0.50;99.90
28484;DHT22;15704;48.834;8.736;2023-03-01T08:23:45;-0.40;99.90
28484;DHT22;15704;48.834;8.736;2023-03-01T08:26:17;-0.50;99.90
28484;DHT22;15704;48.834;8.736;2023-03-01T08:28:45;-0.30;99.90
28484;DHT22;15704;48.834;8.736;2023-03-01T08:31:34;-0.30;99.90
28484;DHT22;15704;48.834;8.736;2023-03-01T08:34:10;-0.30;99.90
28484;DHT22;15704;48.834;8.736;2023-03-01T08:36:44;-0.30;99.90
28484;DHT22;15704;48.834;8.736;2023-03-01T08:39:14;0.00;99.90
28484;DHT22;15704;48.834;8.736;2023-03-01T08:41:42;-0.10;99.90
28484;DHT22;15704;48.834;8.736;2023-03-01T08:44:10;0.10;99.90
28484;DHT22;15704;48.834;8.736;2023-03-01T08:46:40;0.30;99.90
28484;DHT22;15704;48.834;8.736;2023-03-01T08:49:12;0.30;99.90
28484;DHT22;15704;48.834;8.736;2023-03-01T08:51:40;0.30;99.90
28484;DHT22;15704;48.834;8.736;2023-03-01T08:54:19;0.30;99.90
28484;DHT22;15704;48.834;8.736;2023-03-01T08:56:47;0.30;99.90
28484;DHT22;15704;48.834;8.736;2023-03-01T08:59:15;0.30;99.90
28484;DHT22;15704;48.834;8.736;2023-03-01T09:01:42;0.60;99.90
28484;DHT22;15704;48.834;8.736;2023-03-01T09:04:11;0.60;99.90
28484;DHT22;15704;48.834;8.736;2023-03-01T09:06:38;0.70;99.90
28484;DHT22;15704;48.834;8.736;2023-03-01T09:09:05;0.80;99.90
28484;DHT22;15704;48.834;8.736;2023-03-01T09:11:32;0.70;99.90
28484;DHT22;15704;48.834;8.736;2023-03-01T09:13:59;0.80;99.90
28484;DHT22;15704;48.834;8.736;2023-03-01T09:16:26;0.90;99.90
28484;DHT22;15704;48.834;8.736;2023-03-01T09:18:56;1.10;99.90
28484;DHT22;15704;48.834;8.736;2023-03-01T09:21:32;1.10;99.90
28484;DHT22;15704;48.834;8.736;2023-03-01T09:24:14;1.00;99.90
28484;DHT22;15704;48.834;8.736;2023-03-01T09:26:41;1.20;99.90
28484;DHT22;15704;48.834;8.736;2023-03-01T09:29:10;1.30;99.90
28484;DHT22;15704;48.834;8.736;2023-03-01T09:31:43;1.20;99.90
28484;DHT22;15704;48.834;8.736;2023-03-01T09:34:14;1.40;99.90
28484;DHT22;15704;48.834;8.736;2023-03-01T09:36:50;1.50;99.90
28484;DHT22;15704;48.834;8.736;2023-03-01T09:39:23;1.50;99.90
28484;DHT22;15704;48.834;8.736;2023-03-01T09:42:03;1.40;99.90
28484;DHT22;15704;48.834;8.736;2023-03-01T09:47:23;1.70;99.90
28484;DHT22;15704;48.834;8.736;2023-03-01T09:50:10;1.60;99.90
28484;DHT22;15704;48.834;8.736;2023-03-01T09:53:09;1.60;99.90
28484;DHT22;15704;48.834;8.736;2023-03-01T10:04:38;2.20;99.90
28484;DHT22;15704;48.834;8.736;2023-03-01T10:09:44;2.00;99.90
28484;DHT22;15704;48.834;8.736;2023-03-01T10:12:15;2.10;99.90
28484;DHT22;15704;48.834;8.736;2023-03-01T10:15:41;2.10;99.90
28484;DHT22;15704;48.834;8.736;2023-03-01T10:18:01;2.10;99.90
28484;DHT22;15704;48.834;8.736;2023-03-01T10:21:11;1.90;99.90
28484;DHT22;15704;48.834;8.736;2023-03-01T10:23:39;2.20;99.90
28484;DHT22;15704;48.834;8.736;2023-03-01T10:26:40;2.30;99.90
28484;DHT22;15704;48.834;8.736;2023-03-01T10:29:05;2.30;99.90
28484;DHT22;15704;48.834;8.736;2023-03-01T10:31:46;2.40;99.90
28484;DHT22;15704;48.834;8.736;2023-03-01T10:34:33;2.50;99.90
28484;DHT22;15704;48.834;8.736;2023-03-01T10:37:20;2.60;99.90
28484;DHT22;15704;48.834;8.736;2023-03-01T10:43:01;2.90;99.90
28484;DHT22;15704;48.834;8.736;2023-03-01T10:48:12;3.20;99.90
28484;DHT22;15704;48.834;8.736;2023-03-01T10:50:49;3.10;99.90
28484;DHT22;15704;48.834;8.736;2023-03-01T10:55:48;3.40;99.90
28484;DHT22;15704;48.834;8.736;2023-03-01T10:58:22;3.30;99.90
28484;DHT22;15704;48.834;8.736;2023-03-01T11:00:58;3.30;99.90
28484;DHT22;15704;48.834;8.736;2023-03-01T11:03:33;3.30;99.90
28484;DHT22;15704;48.834;8.736;2023-03-01T11:08:43;3.40;99.90
28484;DHT22;15704;48.834;8.736;2023-03-01T11:13:55;3.50;99.90
28484;DHT22;15704;48.834;8.736;2023-03-01T11:16:38;3.40;99.90
28484;DHT22;15704;48.834;8.736;2023-03-01T11:21:59;3.20;99.90
28484;DHT22;15704;48.834;8.736;2023-03-01T11:24:34;3.20;99.90
28484;DHT22;15704;48.834;8.736;2023-03-01T11:27:06;3.30;99.90
28484;DHT22;15704;48.834;8.736;2023-03-01T11:29:44;3.40;99.90
28484;DHT22;15704;48.834;8.736;2023-03-01T11:32:15;3.50;99.90
28484;DHT22;15704;48.834;8.736;2023-03-01T11:34:59;3.60;99.90
28484;DHT22;15704;48.834;8.736;2023-03-01T11:40:17;3.70;99.90
28484;DHT22;15704;48.834;8.736;2023-03-01T11:43:01;3.70;99.90
28484;DHT22;15704;48.834;8.736;2023-03-01T11:45:35;3.60;99.90
28484;DHT22;15704;48.834;8.736;2023-03-01T11:48:41;3.60;99.90
28484;DHT22;15704;48.834;8.736;2023-03-01T12:00:15;3.70;99.90
28484;DHT22;15704;48.834;8.736;2023-03-01T12:02:40;3.80;99.90
28484;DHT22;15704;48.834;8.736;2023-03-01T12:05:24;3.90;99.90
28484;DHT22;15704;48.834;8.736;2023-03-01T12:11:27;4.20;99.90
28484;DHT22;15704;48.834;8.736;2023-03-01T12:14:31;4.10;99.90
28484;DHT22;15704;48.834;8.736;2023-03-01T12:20:36;4.10;99.90
28484;DHT22;15704;48.834;8.736;2023-03-01T12:28:35;4.60;99.90
28484;DHT22;15704;48.834;8.736;2023-03-01T12:31:33;4.30;99.90
28484;DHT22;15704;48.834;8.736;2023-03-01T12:34:47;4.40;99.90
28484;DHT22;15704;48.834;8.736;2023-03-01T12:36:59;4.00;99.90
28484;DHT22;15704;48.834;8.736;2023-03-01T12:45:23;4.30;99.90
28484;DHT22;15704;48.834;8.736;2023-03-01T12:51:16;4.40;99.90
28484;DHT22;15704;48.834;8.736;2023-03-01T12:53:49;4.40;99.90
28484;DHT22;15704;48.834;8.736;2023-03-01T12:56:25;4.40;99.90
28484;DHT22;15704;48.834;8.736;2023-03-01T13:07:40;4.60;99.90
28484;DHT22;15704;48.834;8.736;2023-03-01T13:17:56;4.70;99.90
28484;DHT22;15704;48.834;8.736;2023-03-01T13:20:52;4.80;99.90
28484;DHT22;15704;48.834;8.736;2023-03-01T13:30:58;4.70;99.90
28484;DHT22;15704;48.834;8.736;2023-03-01T13:35:58;4.90;99.90
28484;DHT22;15704;48.834;8.736;2023-03-01T13:41:11;4.70;99.90
28484;DHT22;15704;48.834;8.736;2023-03-01T13:43:41;4.70;99.90
28484;DHT22;15704;48.834;8.736;2023-03-01T13:46:20;4.80;99.90
28484;DHT22;15704;48.834;8.736;2023-03-01T13:48:52;4.80;99.90
28484;DHT22;15704;48.834;8.736;2023-03-01T13:51:27;4.90;99.90
28484;DHT22;15704;48.834;8.736;2023-03-01T13:53:56;5.00;99.90
28484;DHT22;15704;48.834;8.736;2023-03-01T13:56:29;4.80;99.90
28484;DHT22;15704;48.834;8.736;2023-03-01T13:59:04;4.70;99.90
28484;DHT22;15704;48.834;8.736;2023-03-01T14:01:34;4.90;99.90
28484;DHT22;15704;48.834;8.736;2023-03-01T14:04:03;4.80;99.90
28484;DHT22;15704;48.834;8.736;2023-03-01T14:06:43;4.80;99.90
28484;DHT22;15704;48.834;8.736;2023-03-01T14:09:24;4.90;99.90
28484;DHT22;15704;48.834;8.736;2023-03-01T14:20:07;4.70;99.90
28484;DHT22;15704;48.834;8.736;2023-03-01T14:22:36;4.50;99.90
28484;DHT22;15704;48.834;8.736;2023-03-01T14:25:24;4.60;99.90
28484;DHT22;15704;48.834;8.736;2023-03-01T14:28:18;4.60;99.90
28484;DHT22;15704;48.834;8.736;2023-03-01T14:30:48;4.40;99.90
28484;DHT22;15704;48.834;8.736;2023-03-01T14:33:35;4.40;99.90
28484;DHT22;15704;48.834;8.736;2023-03-01T14:38:45;4.40;99.90
28484;DHT22;15704;48.834;8.736;2023-03-01T14:41:21;4.60;99.90
28484;DHT22;15704;48.834;8.736;2023-03-01T14:43:59;4.60;99.90
28484;DHT22;15704;48.834;8.736;2023-03-01T14:46:37;4.40;99.90
28484;DHT22;15704;48.834;8.736;2023-03-01T14:49:15;4.60;99.90
28484;DHT22;15704;48.834;8.736;2023-03-01T14:51:50;4.70;99.90
28484;DHT22;15704;48.834;8.736;2023-03-01T14:54:35;4.70;99.90
28484;DHT22;15704;48.834;8.736;2023-03-01T14:57:04;4.70;99.90
28484;DHT22;15704;48.834;8.736;2023-03-01T14:59:33;4.70;99.90
28484;DHT22;15704;48.834;8.736;2023-03-01T15:02:00;4.60;99.90
28484;DHT22;15704;48.834;8.736;2023-03-01T15:04:28;4.50;99.90
28484;DHT22;15704;48.834;8.736;2023-03-01T15:06:57;4.60;99.90
28484;DHT22;15704;48.834;8.736;2023-03-01T15:09:33;4.50;99.90
28484;DHT22;15704;48.834;8.736;2023-03-01T15:14:55;4.40;99.90
28484;DHT22;15704;48.834;8.736;2023-03-01T15:17:37;4.50;99.90
28484;DHT22;15704;48.834;8.736;2023-03-01T15:20:14;4.60;99.90
28484;DHT22;15704;48.834;8.736;2023-03-01T15:22:46;4.60;99.90
28484;DHT22;15704;48.834;8.736;2023-03-01T15:25:17;4.50;99.90
28484;DHT22;15704;48.834;8.736;2023-03-01T15:27:48;4.40;99.90
28484;DHT22;15704;48.834;8.736;2023-03-01T15:30:22;4.50;99.90
28484;DHT22;15704;48.834;8.736;2023-03-01T15:33:43;4.50;99.90
28484;DHT22;15704;48.834;8.736;2023-03-01T15:38:54;4.50;99.90
28484;DHT22;15704;48.834;8.736;2023-03-01T15:41:23;4.50;99.90
28484;DHT22;15704;48.834;8.736;2023-03-01T15:43:50;4.30;99.90
28484;DHT22;15704;48.834;8.736;2023-03-01T15:46:23;4.30;99.90
28484;DHT22;15704;48.834;8.736;2023-03-01T15:48:57;4.30;99.90
28484;DHT22;15704;48.834;8.736;2023-03-01T15:51:28;4.20;99.90
28484;DHT22;15704;48.834;8.736;2023-03-01T15:54:00;4.20;99.90
28484;DHT22;15704;48.834;8.736;2023-03-01T15:56:27;4.20;99.90
28484;DHT22;15704;48.834;8.736;2023-03-01T15:58:58;4.10;99.90
28484;DHT22;15704;48.834;8.736;2023-03-01T16:01:26;4.10;99.90
28484;DHT22;15704;48.834;8.736;2023-03-01T16:03:53;4.10;99.90
28484;DHT22;15704;48.834;8.736;2023-03-01T16:06:20;4.10;99.90
28484;DHT22;15704;48.834;8.736;2023-03-01T16:08:47;4.10;99.90
28484;DHT22;15704;48.834;8.736;2023-03-01T16:11:19;4.00;99.90
28484;DHT22;15704;48.834;8.736;2023-03-01T16:13:46;4.00;99.90
28484;DHT22;15704;48.834;8.736;2023-03-01T16:16:18;3.90;99.90
28484;DHT22;15704;48.834;8.736;2023-03-01T16:18:46;3.90;99.90
28484;DHT22;15704;48.834;8.736;2023-03-01T16:21:16;3.90;99.90
28484;DHT22;15704;48.834;8.736;2023-03-01T16:23:45;3.90;99.90
28484;DHT22;15704;48.834;8.736;2023-03-01T16:26:12;3.80;99.90
28484;DHT22;15704;48.834;8.736;2023-03-01T16:28:41;3.80;99.90
28484;DHT22;15704;48.834;8.736;2023-03-01T16:31:08;3.70;99.90
28484;DHT22;15704;48.834;8.736;2023-03-01T16:33:36;3.70;99.90
28484;DHT22;15704;48.834;8.736;2023-03-01T16:36:10;3.60;99.90
28484;DHT22;15704;48.834;8.736;2023-03-01T16:38:38;3.60;99.90
28484;DHT22;15704;48.834;8.736;2023-03-01T16:41:05;3.50;99.90
28484;DHT22;15704;48.834;8.736;2023-03-01T16:43:34;3.50;99.90
28484;DHT22;15704;48.834;8.736;2023-03-01T16:46:00;3.40;99.90
28484;DHT22;15704;48.834;8.736;2023-03-01T16:48:27;3.40;99.90
28484;DHT22;15704;48.834;8.736;2023-03-01T16:50:58;3.40;99.90
28484;DHT22;15704;48.834;8.736;2023-03-01T16:53:26;3.30;99.90
28484;DHT22;15704;48.834;8.736;2023-03-01T16:55:55;3.20;99.90
28484;DHT22;15704;48.834;8.736;2023-03-01T16:58:22;3.20;99.90
28484;DHT22;15704;48.834;8.736;2023-03-01T17:00:55;3.10;99.90
28484;DHT22;15704;48.834;8.736;2023-03-01T17:03:24;3.20;99.90
28484;DHT22;15704;48.834;8.736;2023-03-01T17:05:52;3.10;99.90
28484;DHT22;15704;48.834;8.736;2023-03-01T17:08:19;3.00;99.90
28484;DHT22;15704;48.834;8.736;2023-03-01T17:10:45;3.00;99.90
28484;DHT22;15704;48.834;8.736;2023-03-01T17:13:12;2.90;99.90
28484;DHT22;15704;48.834;8.736;2023-03-01T17:15:40;2.90;99.90
28484;DHT22;15704;48.834;8.736;2023-03-01T17:18:08;2.80;99.90
28484;DHT22;15704;48.834;8.736;2023-03-01T17:20:35;2.80;99.90
28484;DHT22;15704;48.834;8.736;2023-03-01T17:23:03;2.70;99.90
28484;DHT22;15704;48.834;8.736;2023-03-01T17:25:30;2.70;99.90
28484;DHT22;15704;48.834;8.736;2023-03-01T17:27:59;2.70;99.90
28484;DHT22;15704;48.834;8.736;2023-03-01T17:30:26;2.60;99.90
28484;DHT22;15704;48.834;8.736;2023-03-01T17:32:53;2.60;99.90
28484;DHT22;15704;48.834;8.736;2023-03-01T17:35:21;2.60;99.90
28484;DHT22;15704;48.834;8.736;2023-03-01T17:37:48;2.50;99.90
28484;DHT22;15704;48.834;8.736;2023-03-01T17:40:15;2.50;99.90
28484;DHT22;15704;48.834;8.736;2023-03-01T17:42:42;2.40;99.90
28484;DHT22;15704;48.834;8.736;2023-03-01T17:45:09;2.50;99.90
28484;DHT22;15704;48.834;8.736;2023-03-01T17:47:36;2.40;99.90
28484;DHT22;15704;48.834;8.736;2023-03-01T17:50:03;2.40;99.90
28484;DHT22;15704;48.834;8.736;2023-03-01T17:52:31;2.40;99.90
28484;DHT22;15704;48.834;8.736;2023-03-01T17:54:58;2.40;99.90
28484;DHT22;15704;48.834;8.736;2023-03-01T17:57:25;2.40;99.90
28484;DHT22;15704;48.834;8.736;2023-03-01T17:59:51;2.30;99.90
28484;DHT22;15704;48.834;8.736;2023-03-01T18:02:18;2.30;99.90